Palm Springs, Florida
Current Conditions -  °F | °C
As of 11:53 PM on Sunday 19 Oct 2014 (Local Time) from KPBI Reporting Station
Scattered Clouds Scattered Clouds  
Wind Chill: 78°   Ceiling: Unl
Heat Index: 80°   Visibility: 10mi
Dew Point: 64°   Wind: 8mph
Humidity: 62%   Direction: 90°E
Pressure: 30.02"   Gusts: NA
Location:  26.6205°N, 80.0918°W
Report Text: KPBI 200353Z 09007KT 10SM FEW035 SCT250 26/18 A3002 RMK AO2 SLP164 T02560178
Loading
Personal Weather Stations






























Interactive Weather Map
Tropical Storm Tracking
New forecast layout! Learn more

10-Day Weather Forecast

Advertisements
Track Severe Weather on mobile